Time;durP1;ratioP1;P1;durP2;ratioP2;P2;SDS_P1;SDS_P2;PMS_P1;PMS_P2;Temp;Humidity;BMP_temperature;BMP_pressure;BME280_temperature;BME280_humidity;BME280_pressure;Samples;Min_cycle;Max_cycle;Signal;HPM_P1;HPM_P2
2021/10/13 00:02:14;;;;;;;11.20;3.72;;;;;;;7.91;88.55;101508.03;6169246;23;20004;-71
2021/10/13 00:04:39;;;;;;;6.47;3.50;;;;;;;7.88;88.56;101508.56;6193470;23;20031;-71
2021/10/13 00:07:05;;;;;;;6.38;3.35;;;;;;;7.86;88.35;101508.81;6220416;23;20374;-71
2021/10/13 00:09:30;;;;;;;9.65;3.42;;;;;;;7.83;88.53;101510.16;6193548;23;20411;-70
2021/10/13 00:11:56;;;;;;;8.00;3.20;;;;;;;7.83;88.55;101510.16;6193463;23;20004;-70
2021/10/13 00:14:22;;;;;;;7.47;3.42;;;;;;;7.84;88.61;101508.22;6168957;23;20015;-70
2021/10/13 00:17:03;;;;;;;8.98;3.70;;;;;;;7.82;88.60;101505.69;6193775;23;20075;-70
2021/10/13 00:19:28;;;;;;;8.95;3.25;;;;;;;7.82;88.74;101505.69;6219777;23;20008;-70
2021/10/13 00:21:54;;;;;;;4.95;3.53;;;;;;;7.83;88.92;101510.16;6168741;23;20019;-70
2021/10/13 00:24:19;;;;;;;5.90;3.63;;;;;;;7.83;89.03;101503.78;6119685;23;20449;-71
2021/10/13 00:26:45;;;;;;;8.90;3.33;;;;;;;7.87;88.77;101504.13;6143459;23;20016;-71
2021/10/13 00:29:10;;;;;;;7.40;3.85;;;;;;;7.86;89.36;101508.81;6193992;23;20430;-70
2021/10/13 00:31:36;;;;;;;7.50;3.45;;;;;;;7.86;89.16;101503.28;6143922;23;20007;-70
2021/10/13 00:34:01;;;;;;;6.70;3.63;;;;;;;7.89;89.41;101504.72;6193307;23;20074;-70
2021/10/13 00:36:27;;;;;;;5.60;3.08;;;;;;;7.92;89.29;101504.22;6220192;23;20444;-70
2021/10/13 00:38:52;;;;;;;5.60;3.20;;;;;;;7.93;89.33;101508.63;6219638;23;20031;-70
2021/10/13 00:41:18;;;;;;;7.57;3.75;;;;;;;7.95;89.43;101501.75;6219823;23;20384;-71
2021/10/13 00:43:44;;;;;;;5.65;3.10;;;;;;;7.98;89.46;101514.25;6193685;23;20004;-71
2021/10/13 00:46:09;;;;;;;6.97;3.40;;;;;;;8.01;89.46;101505.44;6219525;23;20135;-71
2021/10/13 00:48:35;;;;;;;6.82;3.03;;;;;;;8.03;89.30;101503.28;6219994;23;20434;-71
2021/10/13 00:51:00;;;;;;;6.53;3.40;;;;;;;8.04;89.19;101500.25;6168731;23;20019;-71
2021/10/13 00:53:26;;;;;;;6.72;3.13;;;;;;;8.06;88.89;101491.69;6143709;23;20008;-71
2021/10/13 00:55:52;;;;;;;5.82;3.20;;;;;;;8.08;89.09;101484.00;6193128;23;20008;-71
2021/10/13 00:58:18;;;;;;;9.35;3.65;;;;;;;8.09;89.25;101485.66;6220003;23;20015;-71
2021/10/13 01:00:45;;;;;;;8.18;3.22;;;;;;;8.10;89.30;101495.63;6192704;23;20009;-71
2021/10/13 01:03:33;;;;;;;7.20;3.58;;;;;;;8.13;89.57;101503.41;6119731;23;20012;-71
2021/10/13 01:06:17;;;;;;;7.40;3.70;;;;;;;8.14;89.20;101495.97;6193325;23;20369;-71
2021/10/13 01:09:03;;;;;;;6.38;3.30;;;;;;;8.16;89.16;101494.63;6219215;23;20118;-71
2021/10/13 01:11:34;;;;;;;8.43;3.65;;;;;;;8.16;89.36;101494.63;6168285;23;20028;-71
2021/10/13 01:14:00;;;;;;;8.40;3.30;;;;;;;8.17;89.39;101488.00;6219480;23;20066;-71
2021/10/13 01:16:55;;;;;;;6.30;3.00;;;;;;;8.18;89.23;101489.66;6192995;23;20426;-71
2021/10/13 01:19:36;;;;;;;5.63;3.00;;;;;;;8.19;89.02;101485.81;6171792;23;20008;-71
2021/10/13 01:22:20;;;;;;;6.07;3.40;;;;;;;8.21;89.21;101491.09;6194673;23;20009;-71
2021/10/13 01:25:04;;;;;;;6.22;3.22;;;;;;;8.21;88.87;101493.84;6219022;23;20021;-71
2021/10/13 01:27:56;;;;;;;6.43;3.50;;;;;;;8.23;88.96;101489.75;6219566;23;20017;-70
2021/10/13 01:30:23;;;;;;;6.10;3.40;;;;;;;8.22;89.04;101490.84;6192750;23;20015;-70
2021/10/13 01:32:57;;;;;;;4.38;3.17;;;;;;;8.20;89.04;101493.00;6219513;23;20044;-70
2021/10/13 01:35:23;;;;;;;6.32;3.25;;;;;;;8.18;88.86;101484.13;6168129;23;20009;-70
2021/10/13 01:37:51;;;;;;;5.78;3.30;;;;;;;8.18;88.77;101475.00;6143339;23;20445;-70
2021/10/13 01:40:17;;;;;;;6.75;3.38;;;;;;;8.17;88.73;101482.47;6167764;23;20059;-70
2021/10/13 01:42:43;;;;;;;6.30;3.20;;;;;;;8.15;88.67;101473.56;6143965;23;20503;-70
2021/10/13 01:45:09;;;;;;;4.60;3.10;;;;;;;8.14;88.54;101471.91;6143461;23;20004;-70
2021/10/13 01:47:35;;;;;;;6.82;3.65;;;;;;;8.11;88.47;101471.56;6192802;23;20016;-70
2021/10/13 01:50:00;;;;;;;4.97;3.22;;;;;;;8.08;88.77;101467.38;6167940;23;20012;-70
2021/10/13 01:52:26;;;;;;;6.65;3.13;;;;;;;8.07;88.77;101462.94;6143089;23;20020;-71
2021/10/13 01:54:53;;;;;;;6.38;3.05;;;;;;;8.05;88.59;101462.34;6168200;23;20009;-70
2021/10/13 01:57:18;;;;;;;6.18;3.03;;;;;;;8.02;88.84;101466.47;6168002;23;20008;-70
2021/10/13 01:59:44;;;;;;;7.25;3.17;;;;;;;8.01;89.39;101472.25;6167684;23;20009;-71
2021/10/13 02:02:09;;;;;;;6.45;3.70;;;;;;;7.92;90.10;101495.91;6192698;23;20012;-70
2021/10/13 02:04:40;;;;;;;11.13;4.28;;;;;;;7.80;91.83;101484.91;6192558;23;20011;-70
2021/10/13 02:07:05;;;;;;;9.13;3.70;;;;;;;7.85;91.49;101496.06;6167992;23;20080;-71
2021/10/13 02:09:31;;;;;;;7.68;4.35;;;;;;;7.82;91.48;101500.16;6167737;23;20008;-70
2021/10/13 02:11:56;;;;;;;9.48;3.83;;;;;;;7.78;91.09;101489.88;6142885;23;20007;-71
2021/10/13 02:14:22;;;;;;;8.40;3.78;;;;;;;7.78;91.20;101484.34;6167616;23;20004;-70
2021/10/13 02:16:48;;;;;;;7.32;3.70;;;;;;;7.73;90.62;101487.84;6219381;23;20021;-70
2021/10/13 02:19:15;;;;;;;6.28;3.45;;;;;;;7.77;90.57;101488.19;6191969;23;20004;-71
2021/10/13 02:21:40;;;;;;;8.52;3.58;;;;;;;7.76;90.38;101490.13;6192432;23;20036;-70
2021/10/13 02:24:06;;;;;;;8.80;4.10;;;;;;;7.75;90.24;101482.91;6167421;23;20379;-71
2021/10/13 02:26:45;;;;;;;10.60;4.22;;;;;;;7.72;90.79;101494.50;6191958;23;20025;-71
2021/10/13 02:29:17;;;;;;;7.22;3.58;;;;;;;7.71;90.46;101490.03;6167618;23;20012;-70
2021/10/13 02:31:43;;;;;;;6.95;3.40;;;;;;;7.70;90.15;101488.34;6168616;23;20008;-70
2021/10/13 02:34:09;;;;;;;7.93;3.47;;;;;;;7.68;89.99;101492.47;6118329;23;20031;-71
2021/10/13 02:36:34;;;;;;;7.55;3.08;;;;;;;7.65;90.10;101496.56;6142786;23;20084;-71
2021/10/13 02:39:00;;;;;;;6.13;3.30;;;;;;;7.63;90.01;101493.22;6218728;23;20013;-71
2021/10/13 02:41:25;;;;;;;5.95;3.22;;;;;;;7.60;89.86;101497.34;6191931;23;20013;-71
2021/10/13 02:43:50;;;;;;;8.50;3.55;;;;;;;7.59;89.93;101498.41;6192718;23;20016;-71
2021/10/13 02:46:28;;;;;;;6.95;3.38;;;;;;;7.57;89.78;101492.28;6167751;23;20426;-71
2021/10/13 02:48:58;;;;;;;8.52;3.45;;;;;;;7.56;89.82;101496.16;6218326;23;20008;-71
2021/10/13 02:51:28;;;;;;;5.75;3.65;;;;;;;7.53;89.69;101493.06;6192147;23;20000;-71
2021/10/13 02:54:01;;;;;;;5.45;3.53;;;;;;;7.55;89.60;101497.25;6191826;23;20077;-71
2021/10/13 02:56:30;;;;;;;6.22;3.30;;;;;;;7.54;89.52;101495.53;6192203;23;20004;-70
2021/10/13 02:59:18;;;;;;;6.78;3.20;;;;;;;7.52;89.47;101502.41;6218738;23;20031;-71
2021/10/13 03:01:44;;;;;;;7.05;3.67;;;;;;;7.49;89.54;101502.91;6191940;23;20058;-71
2021/10/13 03:04:21;;;;;;;6.75;3.47;;;;;;;7.43;89.51;101503.91;6191793;23;20039;-71
2021/10/13 03:06:59;;;;;;;8.45;3.95;;;;;;;7.41;89.64;101506.09;6218497;23;20008;-71
2021/10/13 03:09:26;;;;;;;6.72;3.35;;;;;;;7.44;89.49;101505.59;6169328;23;20369;-71
2021/10/13 03:11:52;;;;;;;5.30;3.00;;;;;;;7.41;89.51;101500.56;6166751;23;20365;-71
2021/10/13 03:14:21;;;;;;;8.13;3.70;;;;;;;7.36;89.70;101507.69;6167174;23;20008;-71
2021/10/13 03:16:47;;;;;;;6.55;3.20;;;;;;;7.32;89.65;101509.25;6218658;23;20011;-71
2021/10/13 03:19:13;;;;;;;4.80;3.20;;;;;;;7.34;89.51;101506.25;6142516;23;20008;-70
2021/10/13 03:21:40;;;;;;;5.40;3.53;;;;;;;7.30;89.57;101503.16;6118329;23;20012;-71
2021/10/13 03:24:06;;;;;;;5.43;3.20;;;;;;;7.27;89.75;101500.03;6167765;23;20023;-72
2021/10/13 03:26:32;;;;;;;10.75;3.55;;;;;;;7.26;89.76;101503.88;6166840;23;20008;-71
2021/10/13 03:28:57;;;;;;;4.30;3.17;;;;;;;7.24;89.55;101501.34;6192029;23;20015;-71
2021/10/13 03:31:23;;;;;;;7.72;3.90;;;;;;;7.21;89.79;101501.84;6191659;23;20299;-71
2021/10/13 03:33:49;;;;;;;8.30;3.80;;;;;;;7.19;89.61;101506.81;6166867;23;20016;-71
2021/10/13 03:36:14;;;;;;;6.05;3.90;;;;;;;7.16;89.79;101499.03;6191864;23;20097;-71
2021/10/13 03:38:40;;;;;;;5.97;3.40;;;;;;;7.15;89.70;101503.69;6166839;23;20066;-71
2021/10/13 03:41:05;;;;;;;6.20;3.40;;;;;;;7.17;89.70;101506.22;6117345;23;20036;-71
2021/10/13 03:43:31;;;;;;;6.50;3.22;;;;;;;7.15;89.67;101505.59;6167178;23;20325;-71
2021/10/13 03:45:56;;;;;;;8.18;3.85;;;;;;;7.14;89.76;101506.72;6217926;23;20063;-71
2021/10/13 03:48:22;;;;;;;6.13;3.30;;;;;;;7.15;89.80;101513.91;6142603;23;20012;-71
2021/10/13 03:50:47;;;;;;;8.13;3.78;;;;;;;7.12;89.79;101501.41;6167462;23;20013;-71
2021/10/13 03:53:13;;;;;;;6.03;3.75;;;;;;;7.12;89.88;101509.69;6166497;23;20019;-71
2021/10/13 03:55:38;;;;;;;7.05;4.00;;;;;;;7.11;89.77;101507.22;6166829;23;20008;-71
2021/10/13 03:58:04;;;;;;;7.88;3.58;;;;;;;7.08;89.73;101513.22;6191764;23;20055;-71
2021/10/13 04:00:30;;;;;;;7.38;3.30;;;;;;;7.06;89.89;101504.34;6141990;23;20005;-71
2021/10/13 04:02:55;;;;;;;5.60;3.40;;;;;;;7.05;90.17;101508.16;6191901;23;20607;-71
2021/10/13 04:05:21;;;;;;;6.82;3.63;;;;;;;7.02;90.17;101508.66;6218266;23;20015;-71
2021/10/13 04:07:46;;;;;;;6.65;3.95;;;;;;;7.04;90.03;101518.38;6218316;23;20013;-71
2021/10/13 04:10:13;;;;;;;6.65;3.83;;;;;;;7.02;89.96;101525.22;6191148;23;20008;-71
2021/10/13 04:12:39;;;;;;;6.75;3.92;;;;;;;7.00;90.11;101525.50;6192000;23;20307;-71
2021/10/13 04:15:05;;;;;;;6.47;4.10;;;;;;;7.00;90.01;101521.91;6217784;23;20008;-71
2021/10/13 04:17:33;;;;;;;7.68;3.55;;;;;;;7.00;89.85;101530.19;6218271;23;20084;-71
2021/10/13 04:20:00;;;;;;;6.00;3.65;;;;;;;6.98;89.96;101526.81;6191411;23;20008;-71
2021/10/13 04:22:26;;;;;;;6.93;3.75;;;;;;;6.96;89.99;101529.81;6117702;23;20035;-71
2021/10/13 04:24:51;;;;;;;9.85;3.67;;;;;;;6.97;90.03;101526.00;6166531;23;20028;-71
2021/10/13 04:27:17;;;;;;;7.00;3.78;;;;;;;6.97;89.98;101525.16;6218139;23;20013;-71
2021/10/13 04:29:42;;;;;;;8.75;3.92;;;;;;;6.95;89.84;101517.09;6191273;23;20008;-71
2021/10/13 04:32:08;;;;;;;8.80;3.25;;;;;;;6.95;89.99;101530.91;6118218;23;20000;-71
2021/10/13 04:34:33;;;;;;;7.63;3.90;;;;;;;6.94;89.90;101524.56;6191495;23;20008;-71
2021/10/13 04:36:58;;;;;;;8.13;3.90;;;;;;;6.96;89.92;101520.69;6217980;23;20009;-71
2021/10/13 04:39:24;;;;;;;7.03;3.80;;;;;;;6.94;89.87;101519.03;6217855;23;20047;-71
2021/10/13 04:41:50;;;;;;;7.22;4.00;;;;;;;6.93;90.00;101533.91;6217972;23;20008;-70
2021/10/13 04:44:15;;;;;;;8.77;4.00;;;;;;;6.93;90.03;101516.50;6168441;23;20369;-71
2021/10/13 04:46:41;;;;;;;7.90;3.65;;;;;;;6.92;90.25;101523.94;6168485;23;20004;-71
2021/10/13 04:49:06;;;;;;;7.18;3.75;;;;;;;6.90;90.37;101528.88;6192790;23;20008;-70
2021/10/13 04:51:32;;;;;;;5.53;3.22;;;;;;;6.90;90.10;101531.63;6193087;23;20422;-71
2021/10/13 04:53:57;;;;;;;6.35;3.97;;;;;;;6.90;90.10;101531.63;6219654;23;20059;-70
2021/10/13 04:56:23;;;;;;;8.25;3.85;;;;;;;6.90;90.03;101528.03;6219471;23;20063;-71
2021/10/13 04:58:48;;;;;;;7.95;3.95;;;;;;;6.89;90.15;101526.38;6168629;23;20016;-71
2021/10/13 05:01:14;;;;;;;5.82;3.63;;;;;;;6.89;90.06;101532.72;6193143;23;20429;-70
2021/10/13 05:03:39;;;;;;;5.93;3.60;;;;;;;6.87;90.09;101523.84;6168220;23;20009;-70
2021/10/13 05:06:05;;;;;;;7.57;3.22;;;;;;;6.88;90.07;101525.53;6193148;23;20011;-69
2021/10/13 05:08:30;;;;;;;8.32;3.83;;;;;;;6.85;90.07;101523.28;6219642;23;20020;-69
2021/10/13 05:10:56;;;;;;;6.32;3.53;;;;;;;6.83;90.15;101528.19;6219165;23;20078;-69
2021/10/13 05:13:21;;;;;;;5.15;3.42;;;;;;;6.83;90.20;101536.47;6220156;23;20452;-68
2021/10/13 05:15:47;;;;;;;6.28;3.00;;;;;;;6.83;90.25;101532.88;6192911;23;20067;-69
2021/10/13 05:18:12;;;;;;;6.13;3.50;;;;;;;6.82;90.31;101536.72;6119085;23;20452;-69
2021/10/13 05:20:38;;;;;;;7.13;3.30;;;;;;;6.82;90.48;101539.47;6168161;23;20448;-69
2021/10/13 05:23:04;;;;;;;6.30;3.53;;;;;;;6.81;90.65;101543.31;6168507;23;20005;-68
2021/10/13 05:25:29;;;;;;;6.65;3.67;;;;;;;6.81;90.81;101546.91;6192383;23;20021;-67
2021/10/13 05:27:55;;;;;;;5.43;3.60;;;;;;;6.85;91.46;101550.88;6192690;23;20067;-71
2021/10/13 05:30:20;;;;;;;7.60;3.47;;;;;;;6.83;91.45;101555.81;6168519;23;20030;-71
2021/10/13 05:32:46;;;;;;;5.10;3.65;;;;;;;6.87;91.55;101556.97;6143364;23;20009;-71
2021/10/13 05:35:11;;;;;;;7.50;3.70;;;;;;;6.88;91.96;101558.69;6219293;23;20008;-70
2021/10/13 05:37:37;;;;;;;6.35;3.65;;;;;;;6.90;92.60;101567.53;6168210;23;20008;-71
2021/10/13 05:40:03;;;;;;;5.50;3.42;;;;;;;6.91;92.40;101563.72;6191762;23;20013;-71
2021/10/13 05:42:28;;;;;;;7.57;3.80;;;;;;;6.94;92.86;101568.75;6168330;23;20303;-71
2021/10/13 05:44:54;;;;;;;4.65;3.33;;;;;;;6.97;93.06;101559.13;6218748;23;20008;-71
2021/10/13 05:47:20;;;;;;;7.68;3.40;;;;;;;7.00;92.90;101564.16;6192503;23;20430;-71
2021/10/13 05:49:46;;;;;;;7.38;3.90;;;;;;;7.01;93.00;101571.34;6219057;23;20008;-71
2021/10/13 05:52:13;;;;;;;7.63;4.22;;;;;;;7.03;94.13;101565.59;6217756;23;20055;-71
2021/10/13 05:54:39;;;;;;;6.50;3.65;;;;;;;7.07;93.27;101569.53;6192354;23;20009;-71
2021/10/13 05:57:04;;;;;;;7.10;3.65;;;;;;;7.09;93.37;101567.38;6219081;23;20008;-71
2021/10/13 05:59:30;;;;;;;6.50;3.22;;;;;;;7.10;92.67;101564.38;6219424;23;20012;-71
2021/10/13 06:01:55;;;;;;;5.47;3.50;;;;;;;7.12;92.07;101578.75;6218557;23;20050;-71
2021/10/13 06:04:21;;;;;;;6.88;3.80;;;;;;;7.13;92.75;101583.22;6219100;23;20004;-72
2021/10/13 06:06:46;;;;;;;6.82;4.00;;;;;;;7.14;92.71;101584.91;6166092;23;20382;-72
2021/10/13 06:09:12;;;;;;;8.20;3.83;;;;;;;7.15;92.25;101589.31;6218543;23;20031;-72
2021/10/13 06:11:37;;;;;;;8.63;4.13;;;;;;;7.16;92.16;101587.44;6218569;23;20030;-72
2021/10/13 06:14:03;;;;;;;6.20;4.25;;;;;;;7.15;92.07;101582.97;6219187;23;20058;-71
2021/10/13 06:16:28;;;;;;;6.65;3.88;;;;;;;7.15;91.71;101591.25;6218440;23;20334;-71
2021/10/13 06:18:54;;;;;;;7.00;4.05;;;;;;;7.18;91.66;101585.22;6192313;23;20044;-71
2021/10/13 06:21:20;;;;;;;6.40;3.40;;;;;;;7.19;91.54;101581.41;6192542;23;20330;-71
2021/10/13 06:23:46;;;;;;;7.32;3.42;;;;;;;7.19;91.35;101594.34;6191317;23;20014;-70
2021/10/13 06:26:12;;;;;;;7.32;3.50;;;;;;;7.18;91.37;101593.53;6218724;23;20016;-70
2021/10/13 06:28:37;;;;;;;5.40;3.42;;;;;;;7.21;91.20;101593.03;6218984;23;20035;-72
2021/10/13 06:31:03;;;;;;;6.30;3.08;;;;;;;7.20;91.29;101601.59;6167389;23;20015;-71
2021/10/13 06:33:32;;;;;;;6.25;3.33;;;;;;;7.21;91.85;101601.31;6219000;23;20066;-70
2021/10/13 06:35:57;;;;;;;7.90;3.75;;;;;;;7.21;91.56;101606.84;6193045;23;20005;-69
2021/10/13 06:38:23;;;;;;;6.55;3.75;;;;;;;7.22;91.28;101616.84;6218427;23;20008;-69
2021/10/13 06:40:48;;;;;;;8.23;3.38;;;;;;;7.23;91.50;101612.13;6218676;23;20008;-69
2021/10/13 06:43:13;;;;;;;5.45;2.83;;;;;;;7.19;91.33;101613.69;6192292;23;20066;-68
2021/10/13 06:45:39;;;;;;;6.13;3.20;;;;;;;7.20;91.32;101607.94;6192006;23;20013;-69
2021/10/13 06:48:05;;;;;;;5.50;3.17;;;;;;;7.21;91.28;101620.66;6142951;23;20020;-69
2021/10/13 06:50:31;;;;;;;4.93;3.00;;;;;;;7.16;91.36;101626.09;6167258;23;20341;-68
2021/10/13 06:52:57;;;;;;;5.10;3.00;;;;;;;7.20;91.29;101618.16;6167828;23;20008;-69
2021/10/13 06:55:22;;;;;;;6.15;3.38;;;;;;;7.21;91.35;101623.41;6167806;23;20009;-69
2021/10/13 06:57:48;;;;;;;6.55;3.05;;;;;;;7.20;91.38;101616.22;6140308;23;20012;-68
2021/10/13 07:00:14;;;;;;;5.47;3.15;;;;;;;7.25;91.02;101627.41;6166766;23;20016;-69
2021/10/13 07:02:39;;;;;;;7.20;3.03;;;;;;;7.28;91.21;101629.66;6167252;23;20028;-69
2021/10/13 07:05:05;;;;;;;7.07;3.28;;;;;;;7.25;91.58;101627.41;6166948;23;20333;-69
2021/10/13 07:07:31;;;;;;;4.75;3.28;;;;;;;7.27;91.74;101629.91;6142711;23;20013;-69
2021/10/13 07:09:56;;;;;;;6.90;3.80;;;;;;;7.30;91.68;101632.16;6191859;23;20082;-69
2021/10/13 07:12:22;;;;;;;5.10;3.20;;;;;;;7.30;91.59;101632.16;6142600;23;20325;-69
2021/10/13 07:14:47;;;;;;;5.82;3.92;;;;;;;7.30;92.19;101638.56;6192168;23;20445;-69
2021/10/13 07:17:13;;;;;;;4.90;3.58;;;;;;;7.35;92.38;101646.97;6142991;23;20013;-69
2021/10/13 07:19:39;;;;;;;7.70;4.10;;;;;;;7.37;92.30;101644.75;6167025;23;20347;-69
2021/10/13 07:22:04;;;;;;;6.38;3.92;;;;;;;7.43;92.12;101644.88;6142670;23;20008;-68
2021/10/13 07:24:30;;;;;;;5.18;3.60;;;;;;;7.48;92.12;101650.50;6141975;23;20023;-68
2021/10/13 07:26:56;;;;;;;8.43;3.80;;;;;;;7.56;92.51;101645.44;6167311;23;20008;-68
2021/10/13 07:29:21;;;;;;;6.20;3.58;;;;;;;7.63;92.19;101653.56;6192147;23;20019;-69
2021/10/13 07:31:47;;;;;;;6.05;3.70;;;;;;;7.71;92.09;101658.69;6166820;23;20055;-68
2021/10/13 07:34:12;;;;;;;5.15;3.60;;;;;;;7.78;92.29;101651.09;6167145;23;20005;-68
2021/10/13 07:36:38;;;;;;;8.90;3.58;;;;;;;7.88;92.40;101650.44;6118142;23;20009;-68
2021/10/13 07:39:04;;;;;;;5.28;3.40;;;;;;;7.96;92.34;101661.09;6141693;23;20088;-69
2021/10/13 07:41:30;;;;;;;7.68;3.83;;;;;;;8.04;92.09;101663.47;6167338;23;20031;-69
2021/10/13 07:43:55;;;;;;;6.10;3.85;;;;;;;8.17;92.30;101654.03;6167234;23;20426;-69
2021/10/13 07:46:23;;;;;;;7.18;3.85;;;;;;;8.27;93.20;101665.28;6166698;23;20017;-69
2021/10/13 07:48:49;;;;;;;6.05;3.83;;;;;;;8.39;92.62;101667.16;6143425;23;20012;-69
2021/10/13 07:51:14;;;;;;;6.90;4.18;;;;;;;8.51;93.11;101670.66;6191796;23;20001;-69
2021/10/13 07:53:40;;;;;;;6.90;3.85;;;;;;;8.61;93.16;101665.31;6166411;23;20005;-69
2021/10/13 07:56:06;;;;;;;6.63;3.95;;;;;;;8.75;93.61;101676.00;6142517;23;20008;-69
2021/10/13 07:58:33;;;;;;;8.85;4.70;;;;;;;8.87;94.61;101685.09;6142560;23;20040;-69
2021/10/13 08:00:59;;;;;;;14.65;7.53;;;;;;;9.02;99.63;101684.47;6142400;23;20024;-69
2021/10/13 08:03:24;;;;;;;9.05;4.85;;;;;;;9.14;96.04;101679.66;6142820;23;20005;-69
2021/10/13 08:05:50;;;;;;;7.85;4.18;;;;;;;9.28;95.71;101680.97;6166081;23;20012;-69
2021/10/13 08:08:15;;;;;;;7.53;4.22;;;;;;;9.45;94.28;101680.91;6190894;23;20009;-68
2021/10/13 08:10:41;;;;;;;10.85;6.25;;;;;;;9.59;95.07;101686.91;6166801;23;20011;-68
2021/10/13 08:13:06;;;;;;;13.65;6.90;;;;;;;9.75;95.68;101680.44;6166307;23;20008;-68
2021/10/13 08:15:32;;;;;;;9.00;5.97;;;;;;;9.90;97.06;101674.19;6166428;23;20067;-69
2021/10/13 08:17:57;;;;;;;8.90;5.57;;;;;;;10.06;95.57;101680.75;6167629;23;20080;-69
2021/10/13 08:20:23;;;;;;;10.10;5.97;;;;;;;10.22;98.94;101677.03;6143919;23;20008;-69
2021/10/13 08:22:48;;;;;;;8.10;5.90;;;;;;;10.38;97.52;101672.47;6143911;23;20012;-69
2021/10/13 08:25:15;;;;;;;8.85;6.10;;;;;;;10.54;100.00;101672.63;6168720;23;20095;-68
2021/10/13 08:27:40;;;;;;;10.27;6.30;;;;;;;10.68;100.00;101673.84;6169088;23;20079;-69
2021/10/13 08:30:08;;;;;;;14.60;7.55;;;;;;;10.83;100.00;101667.53;6168608;23;20009;-68
2021/10/13 08:32:34;;;;;;;23.13;10.50;;;;;;;10.94;100.00;101672.88;6168897;23;20009;-68
2021/10/13 08:34:59;;;;;;;11.35;7.28;;;;;;;11.10;100.00;101673.00;6193154;23;20015;-68
2021/10/13 08:37:25;;;;;;;16.48;8.93;;;;;;;11.21;100.00;101680.28;6143912;23;20012;-70
2021/10/13 08:39:50;;;;;;;17.27;10.15;;;;;;;11.34;100.00;101673.41;6168553;23;20012;-69
2021/10/13 08:42:23;;;;;;;20.80;10.70;;;;;;;11.44;100.00;101678.16;6193127;23;20012;-69
2021/10/13 08:44:49;;;;;;;14.48;9.60;;;;;;;11.58;100.00;101674.59;6193738;23;20088;-69
2021/10/13 08:47:14;;;;;;;12.20;7.03;;;;;;;11.72;99.58;101674.94;6168771;23;20012;-68
2021/10/13 08:49:40;;;;;;;17.25;9.77;;;;;;;11.86;100.00;101675.28;6168294;23;20426;-68
2021/10/13 08:52:09;;;;;;;20.63;9.95;;;;;;;12.01;100.00;101677.28;6144130;23;20100;-68
2021/10/13 08:54:35;;;;;;;17.15;8.55;;;;;;;12.12;100.00;101676.19;6168593;23;20326;-69
2021/10/13 08:57:01;;;;;;;12.18;7.75;;;;;;;12.26;99.59;101680.09;6193498;23;20009;-69
2021/10/13 08:59:43;;;;;;;14.68;7.60;;;;;;;12.42;98.85;101682.88;6169082;23;20043;-69
2021/10/13 09:02:09;;;;;;;16.33;9.40;;;;;;;12.58;100.00;101686.50;6193837;23;20013;-69
2021/10/13 09:04:35;;;;;;;15.55;8.30;;;;;;;12.68;99.80;101681.78;6168331;23;20014;-69
2021/10/13 09:07:02;;;;;;;13.40;7.95;;;;;;;12.81;98.48;101690.66;6168490;23;20009;-69
2021/10/13 09:09:27;;;;;;;15.95;9.57;;;;;;;12.91;99.24;101693.47;6119290;23;20082;-69
2021/10/13 09:11:53;;;;;;;20.10;11.43;;;;;;;13.03;99.97;101688.41;6168310;23;20013;-68
2021/10/13 09:14:29;;;;;;;19.20;10.18;;;;;;;13.11;99.60;101696.19;6168578;23;20008;-69
2021/10/13 09:17:02;;;;;;;16.08;10.40;;;;;;;13.22;99.09;101690.59;6143855;23;20009;-69
2021/10/13 09:19:48;;;;;;;15.57;10.00;;;;;;;13.37;98.57;101693.38;6193023;23;20015;-69
2021/10/13 09:22:15;;;;;;;20.63;10.90;;;;;;;13.44;99.20;101685.53;6192599;23;20012;-69
2021/10/13 09:24:50;;;;;;;20.00;12.10;;;;;;;13.53;98.82;101691.38;6192888;23;20012;-69
2021/10/13 09:27:26;;;;;;;16.08;9.80;;;;;;;13.65;98.60;101689.09;6192755;23;20507;-69
2021/10/13 09:30:10;;;;;;;16.25;9.32;;;;;;;13.75;98.03;101688.19;6193949;23;20017;-69
2021/10/13 09:32:43;;;;;;;15.48;9.75;;;;;;;13.92;97.28;101687.81;6145868;23;20009;-69
2021/10/13 09:35:08;;;;;;;19.05;9.98;;;;;;;14.05;97.63;101692.78;6143511;23;20005;-68
2021/10/13 09:37:45;;;;;;;11.85;8.18;;;;;;;14.19;96.83;101692.97;6168412;23;20452;-69
2021/10/13 09:40:10;;;;;;;23.52;12.18;;;;;;;14.26;97.89;101691.53;6168267;23;20032;-69
2021/10/13 09:42:37;;;;;;;20.80;11.75;;;;;;;14.34;97.86;101692.03;6217574;23;20063;-69
2021/10/13 09:45:02;;;;;;;21.83;11.18;;;;;;;14.42;96.96;101692.22;6192845;23;20009;-69
2021/10/13 09:47:31;;;;;;;22.83;12.65;;;;;;;14.54;96.94;101703.06;6143880;23;20024;-69
2021/10/13 09:49:56;;;;;;;22.77;13.40;;;;;;;14.61;96.24;101705.53;6167428;23;20008;-69
2021/10/13 09:52:27;;;;;;;21.90;12.50;;;;;;;14.71;95.25;101699.88;6167530;23;20088;-69
2021/10/13 09:55:10;;;;;;;17.75;13.15;;;;;;;14.82;96.02;101701.44;6168081;23;20015;-69
2021/10/13 09:57:45;;;;;;;;;;;;;;;14.90;95.51;101702.75;6193593;23;20032;-69
2021/10/13 10:00:12;;;;;;;19.05;10.93;;;;;;;15.03;95.22;101699.28;6192236;23;19910;-69
2021/10/13 10:02:39;;;;;;;16.83;9.90;;;;;;;15.15;94.17;101704.47;6192651;23;20452;-69
2021/10/13 10:05:12;;;;;;;18.98;9.95;;;;;;;15.27;93.58;101699.31;6168329;23;20008;-69
2021/10/13 10:07:42;;;;;;;14.23;9.57;;;;;;;15.40;93.72;101701.38;6168152;23;20099;-68
2021/10/13 10:10:09;;;;;;;17.45;9.05;;;;;;;15.49;93.10;101698.78;6119908;23;20189;-69
2021/10/13 10:13:11;;;;;;;15.98;10.05;;;;;;;15.59;92.43;101697.81;6143685;23;20004;-69
2021/10/13 10:15:47;;;;;;;17.23;10.43;;;;;;;15.67;92.18;101697.16;6130145;23;20019;-69
2021/10/13 10:18:32;;;;;;;15.65;10.02;;;;;;;15.76;91.55;101695.38;6192201;23;20005;-69
2021/10/13 10:21:23;;;;;;;16.40;8.30;;;;;;;15.88;91.65;101694.09;6217673;23;20008;-69
2021/10/13 10:23:51;;;;;;;14.80;9.23;;;;;;;16.00;90.62;101697.31;6192289;23;20020;-69
2021/10/13 10:26:26;;;;;;;9.20;6.28;;;;;;;16.14;89.23;101692.59;6167807;23;20071;-69
2021/10/13 10:28:57;;;;;;;11.43;6.85;;;;;;;16.28;89.01;101685.09;6192228;23;20015;-69
2021/10/13 10:31:29;;;;;;;10.50;6.07;;;;;;;16.42;89.26;101690.75;6143572;23;20026;-69
2021/10/13 10:34:06;;;;;;;10.48;6.35;;;;;;;16.54;89.27;101687.47;6192126;23;20013;-69
2021/10/13 10:36:35;;;;;;;12.63;6.82;;;;;;;16.65;87.79;101679.72;6217074;23;20018;-69
2021/10/13 10:39:04;;;;;;;10.13;6.43;;;;;;;16.73;86.32;101679.84;6191955;23;20015;-69
2021/10/13 10:41:47;;;;;;;9.88;5.35;;;;;;;16.84;84.73;101682.53;6166993;23;20088;-69
2021/10/13 10:44:29;;;;;;;7.63;6.05;;;;;;;16.95;85.62;101679.22;6169614;23;20043;-70
2021/10/13 10:46:58;;;;;;;8.50;5.15;;;;;;;17.07;85.24;101675.91;6167965;23;20040;-69
2021/10/13 10:49:45;;;;;;;10.50;5.55;;;;;;;17.23;86.70;101689.66;6167353;23;20012;-69
2021/10/13 10:52:31;;;;;;;10.50;6.50;;;;;;;17.30;82.02;101684.44;6192100;23;20016;-69
2021/10/13 10:55:07;;;;;;;9.82;6.72;;;;;;;17.38;80.13;101675.31;6191757;23;20334;-70
2021/10/13 10:57:37;;;;;;;8.30;6.03;;;;;;;17.43;81.25;101678.84;6168705;23;20051;-69
2021/10/13 11:00:23;;;;;;;9.15;6.28;;;;;;;17.45;79.65;101677.72;6191859;23;20004;-69
2021/10/13 11:03:17;;;;;;;8.52;6.15;;;;;;;17.54;79.12;101679.47;6207431;23;20012;-70
2021/10/13 11:05:42;;;;;;;9.30;5.80;;;;;;;17.60;78.77;101680.19;6147171;23;20015;-69
2021/10/13 11:08:11;;;;;;;8.77;5.38;;;;;;;17.68;79.18;101687.06;6118279;23;20008;-69
2021/10/13 11:10:37;;;;;;;9.98;5.90;;;;;;;17.71;77.52;101686.41;6142540;23;20312;-69
2021/10/13 11:13:03;;;;;;;10.30;5.60;;;;;;;17.68;78.62;101687.06;6167359;23;20011;-69
2021/10/13 11:15:29;;;;;;;8.63;5.50;;;;;;;17.70;78.34;101687.59;6166990;23;20015;-69
2021/10/13 11:17:55;;;;;;;9.13;5.43;;;;;;;17.71;78.07;101689.22;6167553;23;20020;-69
2021/10/13 11:20:24;;;;;;;9.30;4.85;;;;;;;17.67;77.28;101685.41;6167564;23;20043;-69
2021/10/13 11:22:57;;;;;;;9.88;5.40;;;;;;;17.64;77.37;101676.44;6167014;23;20051;-69
2021/10/13 11:25:23;;;;;;;9.52;4.88;;;;;;;17.65;75.75;101680.91;6166877;23;20031;-69
2021/10/13 11:28:01;;;;;;;10.20;4.72;;;;;;;17.72;76.48;101677.69;6142569;23;20009;-69
2021/10/13 11:30:29;;;;;;;7.38;4.85;;;;;;;17.72;76.57;101676.84;6142811;23;20009;-70
2021/10/13 11:32:55;;;;;;;9.73;5.45;;;;;;;17.68;75.54;101676.66;6167499;23;20005;-69
2021/10/13 11:35:21;;;;;;;8.15;5.80;;;;;;;17.69;75.53;101671.84;6191850;23;20012;-69